createdAt,value
2022-12-23T00:01:50.945Z,6.95
2022-12-23T00:06:49.715Z,5.85
2022-12-23T00:12:06.967Z,5.53
2022-12-23T00:17:17.544Z,5.75
2022-12-23T00:22:40.545Z,5.32
2022-12-23T00:27:40.014Z,6.05
2022-12-23T00:32:38.784Z,5.88
2022-12-23T00:37:37.510Z,5.13
2022-12-23T00:42:54.438Z,4.78
2022-12-23T00:48:19.611Z,4.50
2022-12-23T00:53:19.418Z,5.18
2022-12-23T00:58:20.420Z,4.82
2022-12-23T01:03:37.390Z,5.70
2022-12-23T01:08:36.242Z,6.18
2022-12-23T01:13:35.967Z,5.20
2022-12-23T01:18:35.935Z,5.05
2022-12-23T01:23:35.205Z,5.10
2022-12-23T01:28:34.847Z,5.55
2022-12-23T01:33:33.998Z,4.80
2022-12-23T01:38:33.859Z,5.45
2022-12-23T01:43:49.080Z,4.68
2022-12-23T01:48:51.863Z,4.57
2022-12-23T01:53:54.295Z,4.55
2022-12-23T01:58:58.637Z,4.80
2022-12-23T02:04:02.984Z,4.68
2022-12-23T02:09:19.977Z,4.90
2022-12-23T02:14:49.663Z,4.28
2022-12-23T02:20:22.101Z,3.75
2022-12-23T02:25:45.699Z,4.07
2022-12-23T02:30:52.113Z,4.10
2022-12-23T02:36:00.045Z,4.15
2022-12-23T02:41:16.230Z,3.10
2022-12-23T02:46:30.878Z,3.33
2022-12-23T02:51:47.661Z,3.40
2022-12-23T02:56:51.059Z,3.17
2022-12-23T03:01:52.249Z,3.65
2022-12-23T03:06:56.091Z,3.85
2022-12-23T03:12:05.481Z,3.38
2022-12-23T03:17:30.365Z,3.60
2022-12-23T03:23:00.745Z,3.92
2022-12-23T03:28:16.251Z,3.45
2022-12-23T03:33:27.183Z,4.03
2022-12-23T03:38:26.806Z,3.22
2022-12-23T03:43:30.616Z,3.05
2022-12-23T03:48:44.947Z,3.28
2022-12-23T03:53:51.134Z,2.92
2022-12-23T03:59:01.104Z,3.15
2022-12-23T04:04:11.490Z,3.30
2022-12-23T04:09:14.384Z,3.78
2022-12-23T04:14:22.314Z,3.60
2022-12-23T04:19:21.034Z,3.70
2022-12-23T04:24:19.760Z,3.60
2022-12-23T04:29:19.145Z,3.22
2022-12-23T04:34:17.980Z,2.50
2022-12-23T04:39:16.771Z,1.25
2022-12-23T04:44:15.677Z,0.43
2022-12-23T04:49:14.388Z,0.20
2022-12-23T04:54:13.196Z,0.20
2022-12-23T04:59:12.045Z,0.20
2022-12-23T05:04:11.461Z,0.20
2022-12-23T05:09:10.445Z,0.15
2022-12-23T05:14:12.438Z,0.15
2022-12-23T05:19:11.486Z,0.30
2022-12-23T05:24:10.346Z,0.40
2022-12-23T05:29:09.068Z,0.30
2022-12-23T05:34:08.016Z,0.47
2022-12-23T05:39:07.783Z,0.40
2022-12-23T05:44:06.628Z,0.25
2022-12-23T05:49:05.404Z,0.10
2022-12-23T05:54:04.354Z,0.30
2022-12-23T05:59:03.277Z,0.30
2022-12-23T06:04:02.176Z,0.15
2022-12-23T06:09:01.072Z,0.20
2022-12-23T06:13:59.907Z,0.20
2022-12-23T06:18:58.857Z,0.22
2022-12-23T06:23:57.945Z,0.20
2022-12-23T06:28:56.633Z,0.40
2022-12-23T06:33:55.475Z,0.40
2022-12-23T06:38:54.185Z,0.30
2022-12-23T06:43:54.547Z,0.30
2022-12-23T06:48:53.895Z,0.20
2022-12-23T06:53:52.750Z,0.20
2022-12-23T06:58:52.793Z,0.25
2022-12-23T07:03:51.586Z,0.20
2022-12-23T07:08:51.197Z,0.20
2022-12-23T07:13:50.673Z,0.30
2022-12-23T07:18:49.548Z,0.50
2022-12-23T07:23:48.444Z,0.22
2022-12-23T07:28:48.755Z,0.32
2022-12-23T07:33:47.547Z,0.22
2022-12-23T07:38:50.861Z,0.45
2022-12-23T07:43:49.772Z,0.40
2022-12-23T07:48:48.735Z,0.38
2022-12-23T07:53:51.479Z,0.60
2022-12-23T07:58:54.241Z,0.43
2022-12-23T08:03:53.404Z,0.70
2022-12-23T08:08:52.268Z,0.40
2022-12-23T08:13:53.007Z,0.40
2022-12-23T08:18:52.047Z,0.35
2022-12-23T08:23:51.469Z,0.38
2022-12-23T08:28:53.703Z,0.57
2022-12-23T08:33:55.935Z,0.40
2022-12-23T08:38:56.960Z,0.30
2022-12-23T08:43:56.675Z,0.55
2022-12-23T08:48:55.946Z,0.65
2022-12-23T08:54:01.117Z,0.75
2022-12-23T08:59:01.176Z,1.27
2022-12-23T09:04:05.026Z,0.35
2022-12-23T09:09:05.507Z,0.40
2022-12-23T09:14:05.190Z,0.40
2022-12-23T09:19:04.699Z,0.30
2022-12-23T09:24:03.959Z,0.60
2022-12-23T09:29:02.843Z,0.70
2022-12-23T09:34:01.806Z,0.30
2022-12-23T09:39:00.989Z,0.57
2022-12-23T09:44:08.983Z,0.35
2022-12-23T09:49:18.489Z,0.32
2022-12-23T09:54:26.859Z,0.30
2022-12-23T09:59:36.010Z,0.20
2022-12-23T10:05:17.055Z,0.40
2022-12-23T10:10:37.294Z,0.30
2022-12-23T10:15:45.164Z,0.47
2022-12-23T10:21:14.695Z,0.43
2022-12-23T10:26:39.549Z,0.32
2022-12-23T10:31:50.162Z,0.68
2022-12-23T10:37:01.170Z,0.60
2022-12-23T10:42:09.057Z,0.30
2022-12-23T10:47:13.877Z,0.57
2022-12-23T10:52:20.784Z,0.65
2022-12-23T10:57:20.839Z,0.73
2022-12-23T11:02:42.312Z,1.02
2022-12-23T11:12:49.804Z,1.40
2022-12-23T11:18:00.233Z,1.35
2022-12-23T11:23:02.724Z,1.20
2022-12-23T11:28:10.753Z,0.52
2022-12-23T11:33:31.517Z,0.90
2022-12-23T11:38:30.729Z,0.90
2022-12-23T11:43:32.820Z,0.90
2022-12-23T11:48:31.883Z,0.70
2022-12-23T11:53:31.453Z,0.60
2022-12-23T11:58:34.249Z,0.63
2022-12-23T12:03:36.068Z,0.90
2022-12-23T12:08:38.724Z,0.90
2022-12-23T12:13:45.305Z,1.05
2022-12-23T12:18:50.604Z,0.70
2022-12-23T12:24:19.271Z,0.85
2022-12-23T12:29:20.918Z,0.70
2022-12-23T12:34:57.443Z,0.88
2022-12-23T12:40:22.824Z,0.63
2022-12-23T12:45:25.249Z,0.90
2022-12-23T12:50:29.592Z,0.80
2022-12-23T12:55:43.648Z,0.70
2022-12-23T13:01:08.437Z,0.70
2022-12-23T13:06:16.366Z,0.88
2022-12-23T13:12:04.437Z,0.75
2022-12-23T13:17:17.616Z,1.00
2022-12-23T13:22:18.197Z,1.00
2022-12-23T13:27:22.761Z,1.80
2022-12-23T13:32:33.829Z,1.08
2022-12-23T13:37:44.828Z,0.85
2022-12-23T13:42:52.645Z,0.80
2022-12-23T13:48:25.333Z,1.10
2022-12-23T13:53:39.593Z,0.93
2022-12-23T13:58:40.673Z,0.90
2022-12-23T14:03:40.820Z,0.93
2022-12-23T14:08:43.028Z,1.30
2022-12-23T14:13:51.595Z,0.85
2022-12-23T14:19:11.686Z,1.05
2022-12-23T14:24:46.457Z,0.77
2022-12-23T14:30:26.204Z,0.70
2022-12-23T14:35:38.577Z,0.68
2022-12-23T14:40:51.219Z,0.93
2022-12-23T14:50:58.656Z,0.98
2022-12-23T14:56:23.690Z,0.80
2022-12-23T15:01:42.710Z,0.90
2022-12-23T15:06:48.660Z,1.67
2022-12-23T15:11:48.438Z,1.42
2022-12-23T15:16:47.616Z,1.50
2022-12-23T15:21:54.414Z,1.55
2022-12-23T15:27:25.253Z,1.35
2022-12-23T15:32:18.654Z,1.15
2022-12-23T15:37:22.199Z,1.25
2022-12-23T15:42:31.560Z,1.20
2022-12-23T15:47:43.148Z,1.23
2022-12-23T15:52:44.981Z,1.27
2022-12-23T15:57:49.957Z,0.93
2022-12-23T16:03:01.731Z,1.15
2022-12-23T16:08:14.032Z,1.60
2022-12-23T16:13:20.870Z,1.52
2022-12-23T16:18:24.087Z,1.63
2022-12-23T16:23:31.654Z,1.70
2022-12-23T16:28:41.674Z,1.73
2022-12-23T16:33:47.785Z,1.95
2022-12-23T16:38:47.993Z,2.20
2022-12-23T16:43:52.127Z,2.13
2022-12-23T16:48:58.631Z,2.60
2022-12-23T16:53:58.218Z,3.22
2022-12-23T16:58:57.055Z,3.30
2022-12-23T17:03:56.296Z,3.95
2022-12-23T17:08:57.059Z,4.05
2022-12-23T17:14:03.294Z,5.22
2022-12-23T17:19:05.768Z,5.25
2022-12-23T17:24:09.374Z,5.20
2022-12-23T17:29:11.747Z,6.25
2022-12-23T17:34:15.950Z,5.50
2022-12-23T17:39:15.282Z,5.93
2022-12-23T17:44:16.492Z,5.95
2022-12-23T17:49:15.281Z,5.80
2022-12-23T17:54:23.156Z,5.65
2022-12-23T17:59:22.296Z,6.78
2022-12-23T18:04:21.249Z,6.70
2022-12-23T18:09:21.530Z,6.47
2022-12-23T18:14:29.342Z,5.72
2022-12-23T18:19:28.306Z,7.55
2022-12-23T18:24:27.410Z,6.93
2022-12-23T18:29:26.378Z,7.00
2022-12-23T18:34:25.433Z,7.15
2022-12-23T18:39:24.281Z,7.47
2022-12-23T18:44:23.261Z,8.43
2022-12-23T18:49:22.179Z,8.40
2022-12-23T18:54:22.994Z,8.93
2022-12-23T18:59:29.678Z,8.43
2022-12-23T19:04:29.307Z,8.52
2022-12-23T19:09:28.249Z,8.82
2022-12-23T19:14:27.230Z,11.07
2022-12-23T19:19:26.313Z,9.80
2022-12-23T19:24:25.144Z,8.90
2022-12-23T19:29:24.088Z,9.88
2022-12-23T19:34:23.131Z,8.35
2022-12-23T19:39:24.079Z,9.95
2022-12-23T19:44:22.820Z,8.90
2022-12-23T19:49:21.625Z,8.05
2022-12-23T19:54:20.512Z,9.43
2022-12-23T19:59:20.294Z,8.80
2022-12-23T20:04:19.083Z,7.25
2022-12-23T20:09:18.437Z,7.90
2022-12-23T20:14:19.598Z,8.00
2022-12-23T20:19:18.580Z,8.60
2022-12-23T20:24:17.536Z,9.77
2022-12-23T20:29:16.533Z,9.13
2022-12-23T20:34:17.504Z,8.23
2022-12-23T20:39:16.441Z,9.10
2022-12-23T20:49:34.210Z,8.43
2022-12-23T20:54:36.808Z,7.68
2022-12-23T20:59:35.727Z,6.20
2022-12-23T21:04:34.537Z,6.88
2022-12-23T21:09:33.592Z,6.50
2022-12-23T21:14:32.432Z,5.20
2022-12-23T21:19:31.403Z,5.45
2022-12-23T21:24:30.170Z,5.95
2022-12-23T21:29:28.955Z,5.63
2022-12-23T21:34:27.747Z,5.25
2022-12-23T21:39:27.289Z,4.97
2022-12-23T21:44:26.186Z,4.57
2022-12-23T21:49:25.002Z,4.68
2022-12-23T21:54:24.241Z,4.72
2022-12-23T21:59:23.019Z,4.63
2022-12-23T22:04:22.019Z,4.78
2022-12-23T22:09:20.795Z,4.63
2022-12-23T22:14:19.863Z,4.70
2022-12-23T22:19:18.652Z,4.25
2022-12-23T22:24:17.479Z,4.75
2022-12-23T22:29:16.355Z,4.78
2022-12-23T22:34:18.270Z,4.97
2022-12-23T22:39:21.148Z,2.92
2022-12-23T22:44:21.208Z,1.02
2022-12-23T22:49:20.222Z,0.68
2022-12-23T22:54:19.034Z,0.40
2022-12-23T22:59:23.865Z,0.50
2022-12-23T23:04:22.970Z,0.52
2022-12-23T23:09:22.541Z,0.30
2022-12-23T23:14:22.024Z,0.47
2022-12-23T23:19:20.919Z,0.70
2022-12-23T23:24:19.819Z,1.02
2022-12-23T23:29:18.671Z,0.60
2022-12-23T23:34:17.494Z,1.65
2022-12-23T23:39:16.309Z,0.75
2022-12-23T23:44:15.055Z,0.40
2022-12-23T23:49:14.461Z,0.93
2022-12-23T23:54:13.197Z,0.68
2022-12-23T23:59:12.077Z,0.52
